Time;durP1;ratioP1;P1;durP2;ratioP2;P2;SDS_P1;SDS_P2;PMS_P1;PMS_P2;Temp;Humidity;BMP_temperature;BMP_pressure;BME280_temperature;BME280_humidity;BME280_pressure;Samples;Min_cycle;Max_cycle;Signal;HPM_P1;HPM_P2
2022/05/01 00:02:03;;;;;;;52.20;36.60;;;;;;;8.82;51.34;101010.16;110150;1256;23561;-79
2022/05/01 00:04:33;;;;;;;51.90;39.00;;;;;;;8.78;51.46;101007.34;110263;1256;21970;-79
2022/05/01 00:07:04;;;;;;;51.00;36.50;;;;;;;8.74;51.59;101010.84;109994;1256;23276;-79
2022/05/01 00:09:33;;;;;;;61.80;39.10;;;;;;;8.71;51.64;101012.70;110247;1257;22073;-79
2022/05/01 00:12:03;;;;;;;52.70;37.00;;;;;;;8.67;51.76;101009.90;110447;1256;23470;-80
2022/05/01 00:14:36;;;;;;;45.60;36.30;;;;;;;8.63;51.97;101009.36;110564;1253;22512;-80
2022/05/01 00:17:05;;;;;;;52.30;35.40;;;;;;;8.60;52.15;101010.34;110899;1252;21973;-79
2022/05/01 00:19:35;;;;;;;45.30;37.10;;;;;;;8.58;52.24;101012.34;110573;1252;23730;-78
2022/05/01 00:22:20;;;;;;;48.70;38.00;;;;;;;8.56;52.43;101011.29;110716;1252;22262;-78
2022/05/01 00:24:50;;;;;;;53.00;37.80;;;;;;;8.56;52.54;101013.39;110432;1252;22006;-78
2022/05/01 00:27:19;;;;;;;54.90;39.10;;;;;;;8.55;52.73;101011.23;110596;1254;23703;-79
2022/05/01 00:29:48;;;;;;;56.80;39.30;;;;;;;8.52;52.85;101009.21;110598;1252;23023;-79
2022/05/01 00:32:18;;;;;;;53.90;40.50;;;;;;;8.47;53.01;101009.27;110699;1253;21960;-78
2022/05/01 00:37:35;;;;;;;53.20;39.10;;;;;;;8.33;53.46;101013.29;110576;1252;21962;-78
2022/05/01 00:40:06;;;;;;;61.30;41.90;;;;;;;8.27;53.79;101011.73;110522;1255;21993;-79
2022/05/01 00:42:41;;;;;;;53.40;39.00;;;;;;;8.22;53.98;101009.20;109985;1255;21965;-78
2022/05/01 00:45:10;;;;;;;52.40;40.10;;;;;;;8.16;54.28;101006.70;110323;1255;23665;-78
2022/05/01 00:47:40;;;;;;;52.20;40.90;;;;;;;8.12;54.46;101007.77;110355;1256;23688;-77
2022/05/01 00:50:09;;;;;;;58.00;40.80;;;;;;;8.11;54.84;101008.11;110413;1255;23606;-78
2022/05/01 00:52:39;;;;;;;59.60;41.50;;;;;;;8.10;55.11;101002.52;110320;1256;21978;-78
2022/05/01 00:55:08;;;;;;;51.50;39.40;;;;;;;8.10;55.26;101004.30;110484;1255;21956;-79
2022/05/01 00:57:38;;;;;;;55.10;39.00;;;;;;;8.11;55.38;101006.52;109612;1260;23046;-78
2022/05/01 01:00:08;;;;;;;57.20;42.00;;;;;;;8.09;55.41;101004.90;109842;1256;21968;-77
2022/05/01 01:02:37;;;;;;;57.40;41.80;;;;;;;8.06;55.45;101006.44;110119;1257;21965;-78
2022/05/01 01:05:07;;;;;;;55.10;42.80;;;;;;;8.00;55.51;101006.36;110218;1256;23059;-78
2022/05/01 01:07:36;;;;;;;62.20;45.20;;;;;;;7.94;55.61;101006.02;110292;1256;23706;-77
2022/05/01 01:10:08;;;;;;;65.90;48.00;;;;;;;7.88;55.82;101004.29;110081;1256;21975;-78
2022/05/01 01:12:56;;;;;;;66.00;47.90;;;;;;;7.83;56.18;101008.59;110244;1256;21995;-78
2022/05/01 01:15:28;;;;;;;72.30;52.20;;;;;;;7.77;56.49;101010.48;110393;1253;21954;-79
2022/05/01 01:17:58;;;;;;;65.30;50.30;;;;;;;7.74;56.60;101007.39;110215;1257;21960;-79
2022/05/01 01:20:29;;;;;;;64.20;48.20;;;;;;;7.74;56.68;101011.48;109663;1262;22216;-79
2022/05/01 01:23:01;;;;;;;59.90;48.20;;;;;;;7.74;56.81;101008.50;109591;1261;22761;-79
2022/05/01 01:25:32;;;;;;;60.30;44.30;;;;;;;7.73;56.83;101013.30;109383;1261;22121;-79
2022/05/01 01:28:06;;;;;;;57.20;44.60;;;;;;;7.70;56.89;101011.64;109335;1264;23068;-79
2022/05/01 01:33:25;;;;;;;58.60;44.40;;;;;;;7.61;57.20;101015.79;109547;1262;21972;-79
2022/05/01 01:35:58;;;;;;;58.90;44.90;;;;;;;7.56;57.26;101016.69;109640;1262;21971;-80
2022/05/01 01:38:28;;;;;;;56.60;44.40;;;;;;;7.53;57.43;101012.73;109483;1259;22991;-79
2022/05/01 01:41:07;;;;;;;59.50;44.70;;;;;;;7.51;57.65;101007.27;109899;1260;21975;-79
2022/05/01 01:43:45;;;;;;;55.20;43.50;;;;;;;7.51;57.88;101009.20;110058;1261;22610;-79
2022/05/01 01:46:16;;;;;;;64.70;47.50;;;;;;;7.54;58.17;101006.90;109991;1260;22336;-79
2022/05/01 01:48:46;;;;;;;66.90;48.10;;;;;;;7.57;58.38;100999.99;110353;1257;22000;-80
2022/05/01 01:51:19;;;;;;;73.20;51.00;;;;;;;7.59;58.50;101000.47;109870;1258;22769;-79
2022/05/01 01:53:59;;;;;;;66.50;49.20;;;;;;;7.60;58.55;101000.47;109825;1258;24289;-79
2022/05/01 01:56:28;;;;;;;69.30;52.20;;;;;;;7.58;58.54;101000.11;110184;1257;23372;-79
2022/05/01 01:58:58;;;;;;;72.00;51.80;;;;;;;7.54;58.42;100997.11;109782;1258;23806;-78
2022/05/01 02:01:27;;;;;;;74.40;52.90;;;;;;;7.49;58.42;100996.31;110097;1258;21962;-78
2022/05/01 02:03:59;;;;;;;;;;;;;;;7.43;58.56;100994.35;110053;1258;22147;-78
2022/05/01 02:06:28;;;;;;;70.20;50.50;;;;;;;7.32;58.69;100993.55;110015;1258;22771;-79
2022/05/01 02:08:58;;;;;;;73.40;53.60;;;;;;;7.29;58.88;100996.61;110173;1258;21971;-78
2022/05/01 02:11:29;;;;;;;71.90;52.10;;;;;;;7.29;58.90;100995.52;109972;1258;22837;-79
2022/05/01 02:14:00;;;;;;;75.00;55.00;;;;;;;7.29;58.96;100992.35;110216;1256;23615;-78
2022/05/01 02:16:29;;;;;;;76.90;55.60;;;;;;;7.30;59.05;100992.50;110170;1256;21969;-78
2022/05/01 02:18:58;;;;;;;76.40;56.70;;;;;;;7.30;59.03;100992.34;110649;1254;23307;-78
2022/05/01 02:21:36;;;;;;;87.10;59.10;;;;;;;7.28;59.16;100989.83;110603;1252;23592;-78
2022/05/01 02:24:12;;;;;;;84.50;59.70;;;;;;;7.25;59.30;100990.78;110494;1252;23720;-78
2022/05/01 02:26:45;;;;;;;90.30;60.80;;;;;;;7.22;59.46;100988.13;110092;1257;23066;-79
2022/05/01 02:29:14;;;;;;;98.70;63.20;;;;;;;7.17;59.49;100992.00;110379;1256;22017;-79
2022/05/01 02:31:44;;;;;;;81.90;59.90;;;;;;;7.13;59.60;100993.23;110270;1257;21979;-78
2022/05/01 02:34:14;;;;;;;80.40;59.50;;;;;;;7.14;59.81;100991.10;110400;1256;21964;-78
2022/05/01 02:36:43;;;;;;;90.60;62.30;;;;;;;7.13;60.05;100990.96;110227;1258;22195;-79
2022/05/01 02:39:13;;;;;;;86.80;63.30;;;;;;;7.14;60.17;100987.51;110180;1257;23572;-79
2022/05/01 02:41:43;;;;;;;96.30;64.00;;;;;;;7.15;60.30;100989.02;110077;1259;22047;-79
2022/05/01 02:44:13;;;;;;;89.00;65.50;;;;;;;7.17;60.53;100987.83;110540;1253;22005;-79
2022/05/01 02:46:42;;;;;;;94.80;66.10;;;;;;;7.19;60.66;100989.58;110536;1253;21973;-80
2022/05/01 02:49:14;;;;;;;107.40;69.30;;;;;;;7.21;60.75;100989.42;110203;1259;21972;-80
2022/05/01 02:51:43;;;;;;;96.50;64.20;;;;;;;7.23;60.85;100990.80;110288;1257;23629;-79
2022/05/01 02:54:12;;;;;;;128.30;70.60;;;;;;;7.25;60.74;100989.61;110080;1259;22072;-80
2022/05/01 02:56:41;;;;;;;97.60;69.50;;;;;;;7.25;60.78;100987.16;110130;1259;22990;-79
2022/05/01 02:59:10;;;;;;;92.30;62.60;;;;;;;7.22;60.81;100986.13;110185;1256;21971;-79
2022/05/01 03:01:40;;;;;;;85.40;60.90;;;;;;;7.19;60.80;100985.68;110185;1257;22068;-79
2022/05/01 03:04:09;;;;;;;87.90;62.60;;;;;;;7.16;60.73;100982.62;110165;1258;23662;-79
2022/05/01 03:06:38;;;;;;;87.20;61.70;;;;;;;7.12;60.67;100981.40;109919;1252;22060;-79
2022/05/01 03:09:08;;;;;;;82.90;60.90;;;;;;;7.09;60.65;100980.23;110584;1253;21966;-79
2022/05/01 03:11:37;;;;;;;82.50;60.20;;;;;;;7.07;60.52;100980.75;110033;1260;23680;-79
2022/05/01 03:14:09;;;;;;;96.90;66.20;;;;;;;7.07;60.65;100981.83;110056;1256;21980;-79
2022/05/01 03:16:38;;;;;;;;;;;;;;;7.07;60.74;100982.50;110012;1260;22045;-79
2022/05/01 03:22:11;;;;;;;79.50;55.10;;;;;;;6.99;60.89;100982.64;108869;1271;21978;-79
2022/05/01 03:24:42;;;;;;;72.10;54.60;;;;;;;7.01;60.83;100983.17;108836;1271;21970;-78
2022/05/01 03:27:12;;;;;;;73.30;54.10;;;;;;;7.01;60.68;100982.63;108857;1271;21981;-79
2022/05/01 03:29:41;;;;;;;77.00;55.90;;;;;;;6.99;60.54;100982.80;108845;1270;21979;-77
2022/05/01 03:32:13;;;;;;;76.50;54.60;;;;;;;6.98;60.66;100981.88;108750;1273;21980;-79
2022/05/01 03:34:45;;;;;;;77.40;55.00;;;;;;;6.98;60.83;100984.89;108657;1267;22493;-80
2022/05/01 03:37:15;;;;;;;;;;;;;;;6.99;60.80;100983.77;109604;1258;22753;-79
2022/05/01 03:39:45;;;;;;;78.80;57.50;;;;;;;6.94;60.96;100984.15;109601;1263;21969;-79
2022/05/01 03:42:15;;;;;;;81.40;57.10;;;;;;;6.94;60.89;100983.65;109558;1263;21986;-79
2022/05/01 03:44:45;;;;;;;87.50;57.00;;;;;;;6.97;60.83;100982.98;109632;1263;22768;-79
2022/05/01 03:47:14;;;;;;;83.40;59.80;;;;;;;7.01;60.77;100989.12;109146;1264;22027;-79
2022/05/01 03:49:43;;;;;;;84.20;57.40;;;;;;;7.04;60.69;100988.50;108986;1267;21979;-79
2022/05/01 03:52:14;;;;;;;82.80;55.40;;;;;;;7.09;60.86;100988.86;108964;1269;22285;-79
2022/05/01 03:54:43;;;;;;;76.30;53.80;;;;;;;7.13;60.98;100988.31;108982;1267;21981;-78
2022/05/01 03:57:12;;;;;;;69.10;50.50;;;;;;;7.17;61.14;100991.67;108954;1269;23667;-78
2022/05/01 03:59:41;;;;;;;73.30;53.20;;;;;;;7.21;61.30;100991.36;108980;1270;24316;-78
2022/05/01 04:02:15;;;;;;;71.50;50.30;;;;;;;7.24;61.48;100993.20;108876;1269;21975;-78
2022/05/01 04:04:46;;;;;;;75.90;51.60;;;;;;;7.28;61.55;100995.84;109322;1261;22375;-78
2022/05/01 04:07:15;;;;;;;75.80;53.20;;;;;;;7.34;61.57;100997.61;110462;1255;21981;-79
2022/05/01 04:09:45;;;;;;;75.50;53.90;;;;;;;7.40;61.61;100996.02;110488;1254;22435;-79
2022/05/01 04:12:15;;;;;;;77.30;52.80;;;;;;;7.47;61.70;100994.46;110506;1254;21966;-79
2022/05/01 04:14:44;;;;;;;72.90;53.50;;;;;;;7.56;61.70;100990.45;110713;1252;22261;-79
2022/05/01 04:17:13;;;;;;;78.70;54.20;;;;;;;7.63;61.67;100991.95;110659;1252;23600;-79
2022/05/01 04:19:42;;;;;;;79.90;53.90;;;;;;;7.69;61.63;100990.71;110418;1253;22020;-79
2022/05/01 04:22:12;;;;;;;81.00;53.70;;;;;;;7.76;61.70;100993.59;110624;1255;23586;-79
2022/05/01 04:24:47;;;;;;;75.20;53.10;;;;;;;7.79;61.65;100992.63;109894;1259;21972;-79
2022/05/01 04:27:19;;;;;;;68.20;51.40;;;;;;;7.83;61.64;100994.75;110221;1259;23700;-78
2022/05/01 04:29:49;;;;;;;68.20;47.50;;;;;;;7.90;61.56;100993.98;110200;1257;22982;-78
2022/05/01 04:32:21;;;;;;;72.90;49.70;;;;;;;8.01;61.77;100993.45;110034;1258;22930;-78
2022/05/01 04:34:53;;;;;;;78.20;52.80;;;;;;;8.19;61.89;101000.33;109865;1259;23694;-78
2022/05/01 04:37:34;;;;;;;84.20;56.60;;;;;;;8.37;61.76;101001.02;110309;1259;22958;-79
2022/05/01 04:40:29;;;;;;;85.30;57.50;;;;;;;8.54;61.40;101003.02;110089;1258;23790;-81
2022/05/01 04:43:36;;;;;;;;;;;;;;;;;;;;;
2022/05/01 04:46:14;;;;;;;67.20;45.40;;;;;;;8.83;60.68;101005.34;110878;1250;23589;-79
2022/05/01 04:48:45;;;;;;;75.30;49.00;;;;;;;8.95;60.42;101004.90;110596;1250;23068;-79
2022/05/01 04:51:18;;;;;;;77.70;51.30;;;;;;;9.07;59.77;101005.07;110578;1253;23568;-79
2022/05/01 04:53:55;;;;;;;74.90;55.20;;;;;;;9.18;59.70;101006.98;109702;1259;21974;-80
2022/05/01 04:59:40;;;;;;;68.30;49.10;;;;;;;9.48;58.78;101003.69;110171;1258;21979;-78
2022/05/01 05:02:36;;;;;;;64.30;47.80;;;;;;;9.69;58.83;101002.34;110360;1257;21961;-79
2022/05/01 05:05:22;;;;;;;63.00;45.80;;;;;;;9.93;58.45;101002.95;109946;1259;22050;-79
2022/05/01 05:11:08;;;;;;;60.80;41.40;;;;;;;10.47;57.24;101000.29;109676;1262;21971;-79
2022/05/01 05:14:05;;;;;;;62.10;44.50;;;;;;;10.74;56.49;101004.48;109727;1260;21972;-79
2022/05/01 05:16:59;;;;;;;52.90;40.00;;;;;;;11.04;55.95;101003.91;109804;1258;21956;-79
2022/05/01 05:19:42;;;;;;;;;;;;;;;;;;;;;
2022/05/01 05:22:18;;;;;;;38.60;30.10;;;;;;;11.40;53.73;101010.15;109675;1262;22532;-78
2022/05/01 05:25:40;;;;;;;46.60;31.80;;;;;;;11.64;53.07;101009.97;109943;1259;22004;-78
2022/05/01 05:28:12;;;;;;;46.40;34.90;;;;;;;11.92;52.43;101011.66;110058;1259;21976;-79
2022/05/01 05:30:54;;;;;;;47.60;33.00;;;;;;;12.18;51.39;101013.05;110031;1259;21950;-78
2022/05/01 05:33:26;;;;;;;51.00;35.20;;;;;;;12.42;50.67;101011.02;109987;1258;23737;-79
2022/05/01 05:36:05;;;;;;;41.20;31.30;;;;;;;12.67;50.15;101016.45;110309;1258;21969;-78
2022/05/01 05:38:40;;;;;;;40.70;31.10;;;;;;;12.84;49.10;101013.53;109886;1258;23035;-77
2022/05/01 05:41:15;;;;;;;38.50;30.30;;;;;;;12.94;48.33;101018.97;110556;1252;21964;-78
2022/05/01 05:44:34;;;;;;;39.70;30.10;;;;;;;13.04;47.84;101023.02;110682;1251;21959;-78
2022/05/01 05:47:57;;;;;;;34.90;26.50;;;;;;;13.11;47.01;101020.34;110641;1250;23526;-78
2022/05/01 05:50:39;;;;;;;34.60;25.80;;;;;;;13.18;46.84;101020.06;110694;1251;22418;-79
2022/05/01 05:53:17;;;;;;;32.60;24.40;;;;;;;13.28;46.52;101022.23;110643;1251;23604;-78
2022/05/01 05:55:48;;;;;;;35.50;24.60;;;;;;;13.37;46.28;101024.95;110531;1253;21954;-79
2022/05/01 05:58:18;;;;;;;30.50;24.50;;;;;;;13.52;46.28;101029.69;110582;1252;23053;-77
2022/05/01 06:00:47;;;;;;;34.50;25.20;;;;;;;13.76;46.36;101029.98;110042;1258;23884;-78
2022/05/01 06:03:19;;;;;;;35.00;25.50;;;;;;;14.09;46.15;101028.17;110017;1260;22466;-79
2022/05/01 06:05:48;;;;;;;30.10;22.20;;;;;;;14.39;45.29;101030.13;110153;1259;24264;-78
2022/05/01 06:08:47;;;;;;;26.90;22.00;;;;;;;14.68;44.70;101028.04;109669;1261;21966;-78
2022/05/01 06:11:31;;;;;;;36.90;25.40;;;;;;;15.02;44.07;101030.44;109986;1260;21968;-78
2022/05/01 06:14:23;;;;;;;32.90;25.40;;;;;;;15.37;43.20;101035.73;109707;1261;21986;-78
2022/05/01 06:17:18;;;;;;;33.50;26.70;;;;;;;15.80;43.08;101037.86;109741;1264;21970;-78
2022/05/01 06:20:06;;;;;;;28.70;21.20;;;;;;;16.39;42.98;101033.80;110181;1257;23052;-78
2022/05/01 06:23:24;;;;;;;26.20;18.80;;;;;;;17.08;41.34;101032.77;109927;1260;22910;-77
2022/05/01 06:26:16;;;;;;;23.30;18.10;;;;;;;17.61;40.09;101031.81;109991;1261;21988;-80
2022/05/01 06:29:33;;;;;;;19.00;15.50;;;;;;;18.05;38.44;101032.20;109797;1262;22016;-79
2022/05/01 06:33:18;;;;;;;19.90;16.40;;;;;;;18.36;37.47;101029.98;110121;1259;22399;-80
2022/05/01 06:36:08;;;;;;;19.10;14.80;;;;;;;18.78;37.05;101034.05;110416;1259;23126;-80
2022/05/01 06:39:06;;;;;;;16.20;13.00;;;;;;;18.96;35.62;101033.95;110243;1259;21976;-79
2022/05/01 06:42:15;;;;;;;;;;;;;;;;;;;;;
2022/05/01 06:45:24;;;;;;;16.30;13.00;;;;;;;19.07;34.35;101037.60;110349;1257;23822;-81
2022/05/01 06:48:44;;;;;;;19.20;13.90;;;;;;;19.16;34.26;101037.69;110411;1257;434721;-81
2022/05/01 06:52:19;;;;;;;16.20;13.70;;;;;;;19.45;34.38;101038.00;109866;1262;23072;-81
2022/05/01 06:55:18;;;;;;;17.30;14.30;;;;;;;19.91;34.41;101037.07;109890;1264;22275;-81
2022/05/01 06:58:21;;;;;;;15.00;12.80;;;;;;;20.35;33.02;101035.37;109746;1264;21982;-82
2022/05/01 07:01:15;;;;;;;15.50;11.70;;;;;;;20.56;31.79;101039.05;110185;1260;21985;-80
2022/05/01 07:04:49;;;;;;;16.20;13.60;;;;;;;20.53;31.32;101036.27;110354;1258;22002;-80
2022/05/01 07:07:29;;;;;;;15.20;11.60;;;;;;;20.64;31.68;101030.46;109497;1262;21949;-80
2022/05/01 07:10:10;;;;;;;14.00;11.90;;;;;;;20.77;31.22;101033.77;109662;1257;22029;-79
2022/05/01 07:13:16;;;;;;;19.80;12.00;;;;;;;21.05;31.45;101033.57;110362;1256;23597;-84
2022/05/01 07:15:56;;;;;;;13.60;10.90;;;;;;;21.28;30.72;101031.63;110536;1256;21956;-80
2022/05/01 07:19:19;;;;;;;13.30;11.70;;;;;;;21.69;30.80;101033.73;110197;1259;24391;-79
2022/05/01 07:21:54;;;;;;;13.50;10.00;;;;;;;22.18;29.83;101034.45;109829;1259;24298;-79
2022/05/01 07:24:42;;;;;;;13.50;10.30;;;;;;;22.33;28.60;101031.58;109798;1259;23571;-79
2022/05/01 07:27:20;;;;;;;11.80;8.50;;;;;;;22.36;28.20;101032.08;110268;1256;21957;-80
2022/05/01 07:30:40;;;;;;;16.30;14.80;;;;;;;22.38;28.11;101024.50;110328;1253;23591;-79
2022/05/01 07:33:40;;;;;;;10.00;7.70;;;;;;;22.62;27.34;101021.56;110256;1256;21957;-80
2022/05/01 07:37:00;;;;;;;7.60;6.30;;;;;;;22.75;26.85;101022.96;110435;1253;21960;-78
2022/05/01 07:40:08;;;;;;;;;;;;;;;;;;;;;
2022/05/01 07:42:59;;;;;;;8.50;4.80;;;;;;;22.72;25.51;101018.96;110126;1262;23671;-79
2022/05/01 07:45:45;;;;;;;6.30;4.70;;;;;;;22.65;24.93;101016.51;109791;1262;23040;-79
2022/05/01 07:48:20;;;;;;;8.80;4.90;;;;;;;22.71;25.33;101017.42;109701;1261;23092;-79
2022/05/01 07:51:10;;;;;;;;;;;;;;;;;;;;;
2022/05/01 07:53:49;;;;;;;7.50;5.10;;;;;;;23.08;24.14;101019.92;109754;1262;23904;-80
2022/05/01 07:56:57;;;;;;;6.30;4.50;;;;;;;23.20;23.71;101019.62;109785;1262;22764;-80
2022/05/01 07:59:33;;;;;;;6.70;4.60;;;;;;;23.28;23.09;101012.13;109801;1262;22043;-79
2022/05/01 08:02:29;;;;;;;;;;;;;;;;;;;;;
2022/05/01 08:05:17;;;;;;;6.60;4.80;;;;;;;23.71;22.95;101010.55;109856;1262;22059;-80
2022/05/01 08:08:34;;;;;;;;;;;;;;;;;;;;;
2022/05/01 08:11:44;;;;;;;5.70;5.10;;;;;;;23.94;21.93;101011.59;109776;1262;21972;-80
2022/05/01 08:14:47;;;;;;;8.60;4.80;;;;;;;23.99;22.22;101007.48;109674;1262;22420;-79
2022/05/01 08:17:46;;;;;;;;;;;;;;;;;;;;;
2022/05/01 08:21:07;;;;;;;5.60;4.60;;;;;;;24.37;21.98;101004.05;111131;1251;22171;-79
2022/05/01 08:23:55;;;;;;;7.50;4.50;;;;;;;24.49;21.55;101001.02;110988;1251;23107;-79
2022/05/01 08:26:34;;;;;;;;;;;;;;;24.65;21.72;100998.20;110848;1253;23049;-76
2022/05/01 08:29:13;;;;;;;7.00;4.50;;;;;;;24.76;21.16;100996.85;110726;1250;23675;-80
2022/05/01 08:32:06;;;;;;;7.30;6.20;;;;;;;24.72;21.19;100996.90;110332;1257;21982;-80
2022/05/01 08:35:13;;;;;;;;;;;;;;;;;;;;;
2022/05/01 08:38:47;;;;;;;8.00;5.10;;;;;;;25.32;20.48;100997.66;110521;1257;21965;-80
2022/05/01 08:42:23;;;;;;;6.40;2.90;;;;;;;25.51;19.78;100996.55;110342;1257;21993;-82
2022/05/01 08:45:24;;;;;;;5.00;2.80;;;;;;;25.49;19.15;100996.30;110382;1258;23185;-82
2022/05/01 08:48:37;;;;;;;4.90;3.50;;;;;;;25.28;19.02;100994.36;109868;1261;21986;-81
2022/05/01 08:51:42;;;;;;;5.90;4.60;;;;;;;25.30;19.52;100990.65;109859;1263;22017;-84
2022/05/01 08:55:05;;;;;;;5.30;3.70;;;;;;;25.73;19.57;100987.95;109820;1261;22742;-81
2022/05/01 08:58:32;;;;;;;5.50;3.40;;;;;;;26.06;18.58;100985.61;109102;1270;21992;-81
2022/05/01 09:01:33;;;;;;;4.90;2.90;;;;;;;26.15;17.96;100984.47;109015;1270;22059;-82
2022/05/01 09:04:54;;;;;;;4.20;2.80;;;;;;;26.14;17.30;100987.76;109090;1270;23044;-80
2022/05/01 09:08:16;;;;;;;4.70;2.40;;;;;;;25.90;17.30;100983.62;109196;1267;22002;-80
2022/05/01 09:14:57;;;;;;;;;;;;;;;;;;;;;
2022/05/01 09:18:29;;;;;;;;;;;;;;;;;;;;;
2022/05/01 09:21:16;;;;;;;5.10;3.80;;;;;;;26.10;17.84;100976.23;109647;1262;23042;-81
2022/05/01 09:24:16;;;;;;;5.00;3.30;;;;;;;26.39;17.82;100977.33;109745;1262;21978;-80
2022/05/01 09:27:56;;;;;;;;;;;;;;;;;;;;;
2022/05/01 09:31:18;;;;;;;12.90;11.70;;;;;;;26.81;17.17;100977.98;110081;1262;21980;-79
2022/05/01 09:34:28;;;;;;;5.90;3.70;;;;;;;26.93;17.41;100977.20;109753;1261;22071;-80
2022/05/01 09:37:25;;;;;;;5.10;2.90;;;;;;;26.91;16.49;100974.30;109335;1267;23061;-78
2022/05/01 09:40:50;;;;;;;;;;;;;;;;;;;;;
2022/05/01 09:44:26;;;;;;;3.10;2.30;;;;;;;26.67;16.83;100971.50;109614;1264;23590;-80
2022/05/01 09:47:44;;;;;;;4.40;2.40;;;;;;;26.46;16.28;100965.95;109543;1264;21976;-78
2022/05/01 09:51:15;;;;;;;4.50;2.50;;;;;;;26.51;16.77;100960.27;109057;1267;23269;-78
2022/05/01 09:54:42;;;;;;;;;;;;;;;;;;;;;
2022/05/01 09:57:56;;;;;;;;;;;;;;;;;;;;;
2022/05/01 10:01:42;;;;;;;;;;;;;;;;;;;;;
2022/05/01 10:05:02;;;;;;;;;;;;;;;;;;;;;
2022/05/01 10:08:03;;;;;;;9.70;2.60;;;;;;;26.60;16.31;100948.90;107757;1288;23606;-80
2022/05/01 10:11:17;;;;;;;6.70;3.00;;;;;;;26.63;16.05;100944.31;108006;1281;23072;-78
2022/05/01 10:14:30;;;;;;;4.60;2.90;;;;;;;26.74;16.27;100947.58;108069;1283;23715;-81
2022/05/01 10:17:13;;;;;;;12.00;5.10;;;;;;;26.82;15.88;100944.49;107962;1285;22026;-82
2022/05/01 10:19:46;;;;;;;5.60;3.00;;;;;;;26.81;15.81;100937.48;107694;1288;21994;-81
2022/05/01 10:22:56;;;;;;;4.50;2.70;;;;;;;26.80;15.71;100935.59;107922;1282;22907;-80
2022/05/01 10:26:05;;;;;;;;;;;;;;;;;;;;;
2022/05/01 10:34:15;;;;;;;4.70;3.80;;;;;;;26.49;15.85;100926.65;108656;1277;23604;-82
2022/05/01 10:38:26;;;;;;;6.50;2.90;;;;;;;26.08;15.90;100923.63;109105;1273;21983;-82
2022/05/01 10:41:44;;;;;;;;;;;;;;;;;;;;;
2022/05/01 10:44:53;;;;;;;;;;;;;;;;;;;;;
2022/05/01 10:48:18;;;;;;;5.00;2.50;;;;;;;24.62;16.23;100923.95;110267;1257;21977;-83
2022/05/01 10:53:11;;;;;;;5.30;2.70;;;;;;;24.18;16.81;100918.17;110913;1254;22014;-81
2022/05/01 10:56:46;;;;;;;;;;;;;;;;;;;;;
2022/05/01 11:00:31;;;;;;;4.60;2.50;;;;;;;23.37;17.07;100913.50;109975;1263;21981;-81
2022/05/01 11:04:00;;;;;;;6.60;2.30;;;;;;;22.95;17.61;100908.84;109122;1267;21976;-80
2022/05/01 11:07:03;;;;;;;5.60;3.50;;;;;;;22.77;18.11;100902.33;109487;1267;21976;-81
2022/05/01 11:09:38;;;;;;;6.70;3.90;;;;;;;22.62;17.95;100900.69;108734;1270;22117;-74
2022/05/01 11:12:13;;;;;;;2.80;2.40;;;;;;;22.47;18.06;100897.92;108841;1270;22346;-75
2022/05/01 11:15:29;;;;;;;4.00;2.40;;;;;;;22.33;18.31;100892.22;108907;1270;22075;-79
2022/05/01 11:18:41;;;;;;;4.60;2.80;;;;;;;22.18;18.56;100892.38;108797;1270;22035;-76
2022/05/01 11:21:29;;;;;;;3.60;2.10;;;;;;;22.01;18.70;100888.10;108744;1270;21983;-78
2022/05/01 11:24:42;;;;;;;5.90;2.60;;;;;;;21.91;19.02;100887.31;109185;1267;22088;-76
2022/05/01 11:27:21;;;;;;;8.30;3.90;;;;;;;21.91;19.24;100884.30;109063;1266;22174;-79
2022/05/01 11:30:31;;;;;;;5.40;2.90;;;;;;;21.91;19.38;100881.13;110023;1257;22083;-75
2022/05/01 11:33:17;;;;;;;7.90;5.50;;;;;;;21.96;19.70;100875.17;110320;1257;23076;-76
2022/05/01 11:36:09;;;;;;;7.80;3.60;;;;;;;21.98;19.51;100873.24;109664;1263;21975;-75
2022/05/01 11:39:00;;;;;;;8.00;3.30;;;;;;;21.95;19.50;100875.52;109621;1261;21971;-76
2022/05/01 11:41:43;;;;;;;5.80;3.80;;;;;;;21.92;19.34;100871.08;109883;1262;22491;-75
2022/05/01 11:44:24;;;;;;;4.20;2.40;;;;;;;21.91;19.30;100866.98;109406;1261;22447;-76
2022/05/01 11:47:23;;;;;;;7.00;3.00;;;;;;;21.88;19.46;100861.04;109608;1260;21974;-76
2022/05/01 11:50:05;;;;;;;4.50;2.50;;;;;;;21.85;19.47;100866.24;109059;1270;21972;-76
2022/05/01 11:52:43;;;;;;;3.50;2.10;;;;;;;21.80;19.51;100866.44;108882;1270;23612;-75
2022/05/01 12:02:30;;;;;;;4.60;2.70;;;;;;;21.48;19.33;100853.34;108879;1270;21999;-78
2022/05/01 12:05:37;;;;;;;4.40;3.10;;;;;;;21.27;19.15;100858.75;108835;1270;23137;-76
2022/05/01 12:08:28;;;;;;;5.90;3.40;;;;;;;21.04;19.48;100858.23;109124;1263;24414;-77
2022/05/01 12:10:58;;;;;;;7.30;3.30;;;;;;;21.01;19.72;100856.86;109619;1266;22230;-78
2022/05/01 12:13:32;;;;;;;6.50;4.00;;;;;;;20.93;19.46;100855.66;109612;1264;23787;-78
2022/05/01 12:16:29;;;;;;;7.80;3.20;;;;;;;20.77;19.47;100849.39;109310;1265;23164;-80
2022/05/01 12:19:39;;;;;;;6.90;3.70;;;;;;;20.57;19.58;100845.83;108637;1270;21979;-76
2022/05/01 12:22:14;;;;;;;5.10;3.90;;;;;;;20.49;19.81;100845.16;109208;1267;22447;-78
2022/05/01 12:24:45;;;;;;;3.80;2.40;;;;;;;20.44;19.90;100845.89;109024;1267;22455;-75
2022/05/01 12:27:20;;;;;;;8.10;5.40;;;;;;;20.37;19.69;100842.25;108941;1267;21967;-75
2022/05/01 12:29:53;;;;;;;7.30;3.40;;;;;;;20.25;19.87;100838.67;109262;1267;22180;-76
2022/05/01 12:32:22;;;;;;;4.30;2.90;;;;;;;20.17;19.92;100836.35;109060;1267;21996;-76
2022/05/01 12:34:51;;;;;;;3.80;2.80;;;;;;;20.10;19.97;100834.46;109190;1264;23058;-76
2022/05/01 12:37:29;;;;;;;7.70;4.30;;;;;;;20.03;20.07;100832.67;109825;1260;22030;-77
2022/05/01 12:40:00;;;;;;;4.70;2.60;;;;;;;20.00;20.17;100830.91;109643;1260;23119;-76
2022/05/01 12:45:44;;;;;;;6.50;3.20;;;;;;;19.97;20.22;100831.31;109861;1260;24362;-78
2022/05/01 12:48:18;;;;;;;5.90;4.80;;;;;;;19.95;20.26;100828.02;109565;1260;24926;-77
2022/05/01 12:50:52;;;;;;;7.20;6.30;;;;;;;20.00;20.42;100824.36;109681;1263;21991;-77
2022/05/01 12:53:30;;;;;;;5.80;3.10;;;;;;;20.06;20.36;100820.48;109641;1263;21982;-76
2022/05/01 12:56:15;;;;;;;6.30;3.00;;;;;;;20.09;20.30;100820.53;109801;1254;23058;-77
2022/05/01 12:58:44;;;;;;;4.90;3.20;;;;;;;20.12;20.22;100816.54;110597;1254;23705;-76
2022/05/01 13:01:27;;;;;;;5.10;2.70;;;;;;;20.16;20.21;100815.02;110481;1254;21961;-75
2022/05/01 13:03:56;;;;;;;4.70;2.50;;;;;;;20.20;20.21;100812.10;110436;1254;21963;-77
2022/05/01 13:06:26;;;;;;;5.70;2.60;;;;;;;20.23;20.11;100812.03;110450;1257;21996;-76
2022/05/01 13:09:06;;;;;;;4.20;2.10;;;;;;;20.27;20.12;100809.40;110527;1254;22294;-76
2022/05/01 13:11:36;;;;;;;13.30;11.90;;;;;;;20.30;20.05;100809.28;110592;1254;21969;-78
2022/05/01 13:14:10;;;;;;;18.60;16.90;;;;;;;20.32;19.94;100807.58;110319;1257;23589;-77
2022/05/01 13:16:45;;;;;;;6.50;5.70;;;;;;;20.33;20.01;100803.58;110420;1254;22096;-80
2022/05/01 13:19:21;;;;;;;4.40;2.20;;;;;;;20.34;19.92;100799.64;110064;1257;23836;-77
2022/05/01 13:21:53;;;;;;;3.50;2.40;;;;;;;20.33;19.59;100795.27;109842;1263;22767;-76
2022/05/01 13:24:32;;;;;;;3.60;2.40;;;;;;;20.34;19.49;100787.09;109543;1263;22209;-76
2022/05/01 13:27:10;;;;;;;6.60;2.00;;;;;;;20.37;19.24;100792.02;109245;1263;23169;-76
2022/05/01 13:29:41;;;;;;;3.70;1.90;;;;;;;20.38;19.11;100787.59;109209;1267;22063;-78
2022/05/01 13:32:15;;;;;;;8.50;3.10;;;;;;;20.40;19.01;100785.46;109491;1264;23660;-77
2022/05/01 13:34:45;;;;;;;11.60;9.60;;;;;;;20.41;19.04;100787.85;109705;1261;23506;-76
2022/05/01 13:37:21;;;;;;;5.40;3.20;;;;;;;20.44;19.17;100785.83;109870;1259;23038;-78
2022/05/01 13:45:40;;;;;;;2.90;2.60;;;;;;;20.59;19.56;100781.73;109041;1270;22129;-76
2022/05/01 13:48:10;;;;;;;4.90;3.30;;;;;;;20.62;19.41;100781.83;109164;1267;21986;-77
2022/05/01 13:50:43;;;;;;;9.80;8.90;;;;;;;20.60;19.08;100779.21;109175;1269;21988;-77